createdAt,value
2022-08-05T00:02:37.955Z,8.73
2022-08-05T00:08:45.993Z,14.27
2022-08-05T00:14:51.851Z,10.45
2022-08-05T00:20:59.050Z,8.45
2022-08-05T00:27:01.703Z,11.60
2022-08-05T00:33:15.617Z,9.02
2022-08-05T00:39:36.947Z,10.40
2022-08-05T00:45:44.566Z,9.30
2022-08-05T00:51:51.400Z,10.68
2022-08-05T01:50:51.309Z,7.97
2022-08-05T01:58:13.648Z,8.38
2022-08-05T02:03:34.093Z,11.60
2022-08-05T02:09:36.523Z,13.25
2022-08-05T02:15:47.275Z,11.75
2022-08-05T02:22:26.503Z,17.15
2022-08-05T02:28:38.141Z,13.60
2022-08-05T02:34:41.613Z,15.85
2022-08-05T02:40:46.222Z,18.70
2022-08-05T02:46:58.681Z,12.65
2022-08-05T02:53:03.039Z,13.07
2022-08-05T02:59:08.470Z,15.85
2022-08-05T03:05:12.264Z,23.35
2022-08-05T03:11:57.184Z,19.40
2022-08-05T03:17:44.970Z,16.83
2022-08-05T03:23:47.317Z,20.13
2022-08-05T03:30:07.458Z,25.00
2022-08-05T03:36:13.751Z,16.75
2022-08-05T03:42:16.623Z,14.05
2022-08-05T03:48:22.789Z,12.73
2022-08-05T03:56:01.078Z,8.13
2022-08-05T04:01:13.003Z,9.10
2022-08-05T04:07:18.942Z,10.23
2022-08-05T04:13:51.383Z,11.40
2022-08-05T04:19:54.516Z,8.80
2022-08-05T04:26:01.109Z,6.95
2022-08-05T04:32:03.157Z,8.77
2022-08-05T04:38:11.050Z,7.20
2022-08-05T04:44:21.491Z,9.60
2022-08-05T04:50:37.184Z,6.57
2022-08-05T04:56:44.819Z,6.45
2022-08-05T05:02:46.735Z,12.33
2022-08-05T05:08:49.939Z,7.15
2022-08-05T05:14:52.068Z,9.35
2022-08-05T05:20:54.444Z,14.50
2022-08-05T05:26:56.460Z,12.52
2022-08-05T05:33:00.613Z,8.98
2022-08-05T05:39:03.835Z,12.32
2022-08-05T05:45:07.033Z,12.23
2022-08-05T05:51:14.875Z,9.30
2022-08-05T05:57:19.289Z,10.85
2022-08-05T06:03:39.959Z,9.18
2022-08-05T06:10:00.220Z,9.75
2022-08-05T06:16:31.830Z,8.07
2022-08-05T06:22:35.652Z,11.70
2022-08-05T06:28:40.358Z,11.20
2022-08-05T06:34:42.756Z,9.82
2022-08-05T06:40:49.437Z,10.10
2022-08-05T06:46:51.364Z,9.43
2022-08-05T06:52:58.701Z,4.88
2022-08-05T06:59:08.417Z,7.03
2022-08-05T07:05:15.374Z,10.00
2022-08-05T07:11:22.448Z,8.05
2022-08-05T07:18:00.931Z,8.05
2022-08-05T07:23:52.176Z,11.63
2022-08-05T07:30:27.355Z,8.00
2022-08-05T07:36:21.498Z,12.95
2022-08-05T07:42:33.657Z,11.80
2022-08-05T07:49:04.012Z,10.65
2022-08-05T07:55:04.143Z,7.35
2022-08-05T08:01:29.977Z,8.52
2022-08-05T08:07:39.517Z,6.03
2022-08-05T08:14:00.873Z,7.55
2022-08-05T08:20:23.516Z,8.63
2022-08-05T08:26:29.690Z,6.22
2022-08-05T08:32:36.292Z,6.07
2022-08-05T08:38:43.721Z,9.98
2022-08-05T08:45:23.704Z,7.18
2022-08-05T08:52:02.340Z,4.75
2022-08-05T08:57:48.416Z,5.28
2022-08-05T09:04:03.239Z,7.93
2022-08-05T09:10:12.581Z,6.13
2022-08-05T09:16:16.866Z,5.65
2022-08-05T09:22:30.869Z,5.45
2022-08-05T09:28:35.172Z,6.03
2022-08-05T09:34:50.795Z,3.28
2022-08-05T09:40:54.263Z,4.90
2022-08-05T09:47:15.383Z,5.28
2022-08-05T09:53:26.078Z,7.45
2022-08-05T09:59:40.514Z,5.60
2022-08-05T10:05:45.289Z,7.55
2022-08-05T10:11:51.060Z,5.85
2022-08-05T10:18:11.606Z,5.40
2022-08-05T10:24:15.140Z,6.00
2022-08-05T10:31:19.989Z,5.63
2022-08-05T10:36:41.658Z,5.88
2022-08-05T10:42:48.515Z,8.32
2022-08-05T10:49:02.705Z,3.85
2022-08-05T10:55:16.123Z,4.93
2022-08-05T11:02:04.646Z,5.90
2022-08-05T11:08:17.221Z,10.02
2022-08-05T11:15:01.274Z,8.73
2022-08-05T11:20:59.562Z,6.45
2022-08-05T11:27:51.461Z,14.30
2022-08-05T11:33:56.230Z,13.60
2022-08-05T11:40:03.578Z,12.00
2022-08-05T11:46:29.890Z,18.35
2022-08-05T11:52:29.935Z,18.40
2022-08-05T11:58:40.703Z,22.45
2022-08-05T12:04:45.774Z,21.45
2022-08-05T12:11:05.710Z,23.80
2022-08-05T12:18:02.806Z,24.37
2022-08-05T12:23:36.848Z,18.67
2022-08-05T12:29:45.273Z,20.08
2022-08-05T12:36:00.990Z,15.38
2022-08-05T12:42:03.543Z,16.33
2022-08-05T12:48:27.202Z,13.48
2022-08-05T12:54:35.909Z,12.90
2022-08-05T13:02:01.516Z,15.50
2022-08-05T13:07:16.070Z,10.53
2022-08-05T13:14:04.539Z,8.43
2022-08-05T13:20:16.522Z,11.02
2022-08-05T13:26:29.765Z,6.85
2022-08-05T13:32:36.318Z,8.35
2022-08-05T13:38:44.015Z,5.03
2022-08-05T13:44:55.689Z,6.00
2022-08-05T13:51:09.599Z,6.72
2022-08-05T13:57:12.483Z,6.35
2022-08-05T14:03:16.882Z,9.05
2022-08-05T14:09:18.780Z,6.65
2022-08-05T14:16:06.037Z,3.10
2022-08-05T14:22:09.121Z,5.32
2022-08-05T14:28:07.289Z,5.13
2022-08-05T14:34:11.982Z,6.03
2022-08-05T14:40:16.840Z,4.07
2022-08-05T14:46:19.199Z,3.03
2022-08-05T14:52:50.320Z,2.90
2022-08-05T14:58:47.615Z,4.80
2022-08-05T15:04:54.779Z,4.07
2022-08-05T15:10:56.853Z,4.60
2022-08-05T15:16:59.408Z,4.88
2022-08-05T15:23:05.723Z,5.68
2022-08-05T15:29:10.726Z,4.35
2022-08-05T15:35:12.852Z,4.57
2022-08-05T15:41:21.019Z,6.40
2022-08-05T15:47:26.310Z,5.75
2022-08-05T15:53:28.440Z,3.05
2022-08-05T15:59:40.788Z,6.82
2022-08-05T16:05:43.090Z,3.55
2022-08-05T16:11:53.805Z,4.30
2022-08-05T16:17:57.995Z,4.35
2022-08-05T16:24:03.344Z,3.13
2022-08-05T16:30:06.184Z,4.53
2022-08-05T16:36:08.648Z,4.63
2022-08-05T16:42:14.625Z,3.47
2022-08-05T16:48:33.500Z,4.80
2022-08-05T16:54:37.048Z,1.70
2022-08-05T17:00:41.917Z,2.25
2022-08-05T17:06:53.017Z,5.80
2022-08-05T17:12:55.795Z,3.43
2022-08-05T17:18:57.897Z,3.13
2022-08-05T17:25:00.295Z,4.82
2022-08-05T17:31:08.424Z,2.67
2022-08-05T17:37:41.663Z,4.05
2022-08-05T17:43:53.147Z,5.95
2022-08-05T17:50:04.370Z,5.95
2022-08-05T17:56:13.026Z,2.55
2022-08-05T18:02:19.701Z,7.67
2022-08-05T18:08:21.554Z,4.28
2022-08-05T18:14:24.717Z,5.15
2022-08-05T18:20:29.503Z,4.38
2022-08-05T18:26:33.687Z,5.07
2022-08-05T18:32:35.532Z,4.63
2022-08-05T18:38:41.332Z,4.43
2022-08-05T18:44:51.844Z,4.18
2022-08-05T18:52:05.401Z,5.53
2022-08-05T18:57:50.062Z,5.45
2022-08-05T19:03:56.593Z,4.95
2022-08-05T19:09:58.852Z,4.45
2022-08-05T19:16:03.736Z,3.65
2022-08-05T19:22:06.103Z,7.88
2022-08-05T19:28:07.958Z,8.52
2022-08-05T19:34:09.872Z,7.78
2022-08-05T19:40:12.677Z,5.38
2022-08-05T19:46:30.668Z,2.60
2022-08-05T19:52:32.949Z,4.18
2022-08-05T19:58:53.460Z,2.53
2022-08-05T20:04:58.677Z,3.40
2022-08-05T20:11:01.878Z,6.55
2022-08-05T20:17:06.302Z,3.47
2022-08-05T20:23:08.208Z,2.53
2022-08-05T20:29:26.648Z,1.70
2022-08-05T20:35:29.386Z,2.28
2022-08-05T20:41:43.988Z,1.58
2022-08-05T20:47:46.530Z,3.75
2022-08-05T20:53:56.746Z,3.05
2022-08-05T21:00:20.761Z,2.65
2022-08-05T21:06:28.335Z,2.78
2022-08-05T21:12:30.861Z,2.08
2022-08-05T21:18:34.945Z,2.58
2022-08-05T21:24:37.878Z,2.97
2022-08-05T21:30:40.359Z,1.48
2022-08-05T21:36:43.345Z,1.42
2022-08-05T21:42:48.823Z,3.47
2022-08-05T21:48:56.809Z,0.95
2022-08-05T21:55:06.267Z,4.03
2022-08-05T22:01:09.080Z,2.67
2022-08-05T22:07:12.821Z,0.95
2022-08-05T22:14:33.746Z,2.78
2022-08-05T22:19:57.460Z,1.17
2022-08-05T22:26:17.571Z,1.92
2022-08-05T22:32:23.054Z,4.55
2022-08-05T22:38:25.876Z,4.75
2022-08-05T22:44:28.831Z,4.07
2022-08-05T22:50:30.714Z,5.35
2022-08-05T22:56:32.603Z,1.13
2022-08-05T23:02:40.167Z,3.38
2022-08-05T23:08:52.158Z,1.00
2022-08-05T23:14:54.154Z,2.10
2022-08-05T23:20:58.327Z,3.22
2022-08-05T23:27:00.654Z,1.52
2022-08-05T23:33:02.632Z,1.35
2022-08-05T23:39:04.617Z,2.78
2022-08-05T23:45:14.350Z,4.47
2022-08-05T23:51:17.667Z,3.17
2022-08-05T23:57:20.286Z,4.38
